createdAt,value
2019-04-27T00:02:18.173Z,53.30
2019-04-27T00:05:09.524Z,53.00
2019-04-27T00:08:11.863Z,54.40
2019-04-27T00:10:55.490Z,54.40
2019-04-27T00:13:23.440Z,54.30
2019-04-27T00:16:11.126Z,54.80
2019-04-27T00:18:49.692Z,55.90
2019-04-27T00:21:28.904Z,56.40
2019-04-27T00:23:56.641Z,56.60
2019-04-27T00:26:24.341Z,56.80
2019-04-27T00:28:53.783Z,56.40
2019-04-27T00:31:23.437Z,57.90
2019-04-27T00:33:51.316Z,58.50
2019-04-27T00:36:47.729Z,57.60
2019-04-27T00:39:23.067Z,58.50
2019-04-27T00:41:53.125Z,59.30
2019-04-27T00:44:21.107Z,59.90
2019-04-27T00:46:48.819Z,59.70
2019-04-27T00:49:16.705Z,60.90
2019-04-27T00:51:44.420Z,62.50
2019-04-27T00:54:13.589Z,61.90
2019-04-27T00:56:53.706Z,61.70
2019-04-27T00:59:49.018Z,62.20
2019-04-27T01:02:30.272Z,62.10
2019-04-27T01:04:58.171Z,61.20
2019-04-27T01:07:26.154Z,62.10
2019-04-27T01:09:53.842Z,61.10
2019-04-27T01:12:23.670Z,61.30
2019-04-27T01:14:53.191Z,62.00
2019-04-27T01:17:21.170Z,61.20
2019-04-27T01:19:49.416Z,61.80
2019-04-27T01:22:18.873Z,62.70
2019-04-27T01:24:46.671Z,62.50
2019-04-27T01:27:31.747Z,61.00
2019-04-27T01:29:59.432Z,62.10
2019-04-27T01:32:29.174Z,63.00
2019-04-27T01:34:56.882Z,63.40
2019-04-27T01:37:24.550Z,63.80
2019-04-27T01:39:52.266Z,63.20
2019-04-27T01:42:20.207Z,64.80
2019-04-27T01:44:54.544Z,63.10
2019-04-27T01:47:22.382Z,62.20
2019-04-27T01:49:50.197Z,63.30
2019-04-27T01:52:19.433Z,62.90
2019-04-27T01:54:49.413Z,63.50
2019-04-27T01:57:18.919Z,63.20
2019-04-27T01:59:48.797Z,64.50
2019-04-27T02:02:33.657Z,64.70
2019-04-27T02:05:33.249Z,63.90
2019-04-27T02:08:01.131Z,64.00
2019-04-27T02:10:29.359Z,63.60
2019-04-27T02:12:58.687Z,64.30
2019-04-27T02:15:26.811Z,64.90
2019-04-27T02:17:54.504Z,64.90
2019-04-27T02:20:22.347Z,64.90
2019-04-27T02:22:50.716Z,64.80
2019-04-27T02:25:21.126Z,63.70
2019-04-27T02:27:52.895Z,64.00
2019-04-27T02:30:41.042Z,64.00
2019-04-27T02:33:32.048Z,63.90
2019-04-27T02:36:00.371Z,64.70
2019-04-27T02:38:30.541Z,64.00
2019-04-27T02:41:01.323Z,64.00
2019-04-27T02:43:46.535Z,64.90
2019-04-27T02:46:14.420Z,64.20
2019-04-27T02:48:55.562Z,63.50
2019-04-27T02:51:14.547Z,62.90
2019-04-27T02:53:59.792Z,63.30
2019-04-27T02:56:30.218Z,64.30
2019-04-27T02:58:59.167Z,62.60
2019-04-27T03:01:30.705Z,63.20
2019-04-27T03:04:00.199Z,63.60
2019-04-27T03:06:29.990Z,63.60
2019-04-27T03:09:00.507Z,63.60
2019-04-27T03:11:30.654Z,62.50
2019-04-27T03:14:29.396Z,62.80
2019-04-27T03:17:00.317Z,63.20
2019-04-27T03:19:39.866Z,61.80
2019-04-27T03:22:19.636Z,61.10
2019-04-27T03:25:20.246Z,62.70
2019-04-27T03:27:50.328Z,60.90
2019-04-27T03:30:22.959Z,60.80
2019-04-27T03:32:54.872Z,62.40
2019-04-27T03:35:22.861Z,63.00
2019-04-27T03:37:51.028Z,62.30
2019-04-27T03:40:20.398Z,62.90
2019-04-27T03:42:50.388Z,63.00
2019-04-27T03:45:20.031Z,62.70
2019-04-27T03:47:50.426Z,61.90
2019-04-27T03:50:23.883Z,62.40
2019-04-27T03:53:10.520Z,61.70
2019-04-27T03:55:42.859Z,62.40
2019-04-27T03:58:39.630Z,62.70
2019-04-27T04:01:10.274Z,62.40
2019-04-27T04:03:39.298Z,63.00
2019-04-27T04:06:07.281Z,63.40
2019-04-27T04:08:35.359Z,62.40
2019-04-27T04:11:11.185Z,63.70
2019-04-27T04:13:45.129Z,63.50
2019-04-27T04:16:26.059Z,63.80
2019-04-27T04:19:02.460Z,66.60
2019-04-27T04:21:30.272Z,68.00
2019-04-27T04:24:00.530Z,68.90
2019-04-27T04:26:32.133Z,70.10
2019-04-27T04:28:59.615Z,71.20
2019-04-27T04:31:32.564Z,72.30
2019-04-27T04:33:59.811Z,73.00
2019-04-27T04:36:29.767Z,74.70
2019-04-27T04:38:56.794Z,75.20
2019-04-27T04:41:32.809Z,78.00
2019-04-27T04:44:12.526Z,78.50
2019-04-27T04:46:52.099Z,79.10
2019-04-27T04:49:20.004Z,79.40
2019-04-27T04:51:50.653Z,81.70
2019-04-27T04:54:20.244Z,83.40
2019-04-27T04:56:49.384Z,84.50
2019-04-27T04:59:17.376Z,85.10
2019-04-27T05:01:45.073Z,85.90
2019-04-27T05:04:12.953Z,86.50
2019-04-27T05:06:40.767Z,88.60
2019-04-27T05:09:09.279Z,88.70
2019-04-27T05:11:37.249Z,90.00
2019-04-27T05:14:04.946Z,90.50
2019-04-27T05:16:33.030Z,91.10
2019-04-27T05:19:01.106Z,91.00
2019-04-27T05:21:33.290Z,92.00
2019-04-27T05:24:01.171Z,92.70
2019-04-27T05:26:29.474Z,92.80
2019-04-27T05:28:59.116Z,93.00
2019-04-27T05:31:27.107Z,94.30
2019-04-27T05:33:54.796Z,94.20
2019-04-27T05:36:22.549Z,94.20
2019-04-27T05:38:50.626Z,94.20
2019-04-27T05:41:20.544Z,95.40
2019-04-27T05:44:11.123Z,95.10
2019-04-27T05:46:58.806Z,95.80
2019-04-27T05:49:44.119Z,94.70
2019-04-27T05:52:29.610Z,95.40
2019-04-27T05:54:59.007Z,95.60
2019-04-27T05:57:30.638Z,96.40
2019-04-27T06:00:01.062Z,96.70
2019-04-27T06:02:30.248Z,96.20
2019-04-27T06:05:00.019Z,96.70
2019-04-27T06:07:29.663Z,96.60
2019-04-27T06:09:59.522Z,96.50
2019-04-27T06:12:27.262Z,96.30
2019-04-27T06:14:54.986Z,95.90
2019-04-27T06:17:22.832Z,96.60
2019-04-27T06:19:52.751Z,96.00
2019-04-27T06:22:20.457Z,96.20
2019-04-27T06:24:54.082Z,96.40
2019-04-27T06:27:18.561Z,96.10
2019-04-27T06:29:49.085Z,95.10
2019-04-27T06:32:17.123Z,95.70
2019-04-27T06:34:44.834Z,95.00
2019-04-27T06:37:12.666Z,95.00
2019-04-27T06:39:40.537Z,95.70
2019-04-27T06:42:16.625Z,94.80
2019-04-27T06:44:39.472Z,94.80
2019-04-27T06:47:09.055Z,93.90
2019-04-27T06:49:36.953Z,94.70
2019-04-27T06:52:04.615Z,94.70
2019-04-27T06:54:32.478Z,93.30
2019-04-27T06:57:01.127Z,93.50
2019-04-27T06:59:29.068Z,93.10
2019-04-27T07:02:00.537Z,91.60
2019-04-27T07:04:26.812Z,91.50
2019-04-27T07:06:56.239Z,93.00
2019-04-27T07:09:24.196Z,93.10
2019-04-27T07:11:51.927Z,91.60
2019-04-27T07:14:19.903Z,78.90
2019-04-27T07:16:48.823Z,82.60
2019-04-27T07:19:18.977Z,82.90
2019-04-27T07:21:47.106Z,80.10
2019-04-27T07:24:14.771Z,79.90
2019-04-27T07:26:42.667Z,82.70
2019-04-27T07:29:10.375Z,79.20
2019-04-27T07:31:40.116Z,79.90
2019-04-27T07:34:09.372Z,72.80
2019-04-27T07:36:39.014Z,74.00
2019-04-27T07:39:10.978Z,72.30
2019-04-27T07:41:38.768Z,71.00
2019-04-27T07:44:26.303Z,71.30
2019-04-27T07:47:12.414Z,68.70
2019-04-27T07:49:40.214Z,68.40
2019-04-27T07:52:08.733Z,66.70
2019-04-27T07:54:38.507Z,63.30
2019-04-27T07:57:06.267Z,62.70
2019-04-27T07:59:41.633Z,64.50
2019-04-27T08:02:10.959Z,63.00
2019-04-27T08:04:40.206Z,63.60
2019-04-27T08:07:09.179Z,63.90
2019-04-27T08:09:37.467Z,63.80
2019-04-27T08:12:05.230Z,61.20
2019-04-27T08:14:32.921Z,60.40
2019-04-27T08:17:02.745Z,58.10
2019-04-27T08:19:30.623Z,57.80
2019-04-27T08:21:59.639Z,59.20
2019-04-27T08:24:29.464Z,60.60
2019-04-27T08:27:03.292Z,57.60
2019-04-27T08:29:49.048Z,58.20
2019-04-27T08:32:20.058Z,55.10
2019-04-27T08:34:49.627Z,55.30
2019-04-27T08:37:18.802Z,52.20
2019-04-27T08:39:46.727Z,51.50
2019-04-27T08:42:14.563Z,52.10
2019-04-27T08:44:42.283Z,53.20
2019-04-27T08:47:10.241Z,52.40
2019-04-27T08:49:39.406Z,51.30
2019-04-27T08:52:09.206Z,50.90
2019-04-27T08:54:39.242Z,49.00
2019-04-27T08:57:07.336Z,47.60
2019-04-27T08:59:35.047Z,48.90
2019-04-27T09:02:02.995Z,44.40
2019-04-27T09:04:30.959Z,45.70
2019-04-27T09:07:19.713Z,45.40
2019-04-27T09:09:49.831Z,49.00
2019-04-27T09:12:45.154Z,47.80
2019-04-27T09:15:19.252Z,45.50
2019-04-27T09:17:50.396Z,46.50
2019-04-27T09:20:28.748Z,45.00
2019-04-27T09:22:56.592Z,46.70
2019-04-27T09:25:24.316Z,46.40
2019-04-27T09:27:52.639Z,46.00
2019-04-27T09:30:20.477Z,42.30
2019-04-27T09:32:48.362Z,42.60
2019-04-27T09:35:16.306Z,42.50
2019-04-27T09:37:45.885Z,40.50
2019-04-27T09:40:13.855Z,40.50
2019-04-27T09:42:41.571Z,40.00
2019-04-27T09:45:09.862Z,37.60
2019-04-27T09:47:39.052Z,35.90
2019-04-27T09:50:08.018Z,38.20
2019-04-27T09:52:36.246Z,34.50
2019-04-27T09:55:06.562Z,35.90
2019-04-27T09:57:38.459Z,38.00
2019-04-27T10:00:09.644Z,36.90
2019-04-27T10:02:37.727Z,33.30
2019-04-27T10:05:06.118Z,30.90
2019-04-27T10:07:35.753Z,33.40
2019-04-27T10:10:06.443Z,32.90
2019-04-27T10:12:36.392Z,31.30
2019-04-27T10:15:06.201Z,33.80
2019-04-27T10:17:34.425Z,31.40
2019-04-27T10:20:02.274Z,29.30
2019-04-27T10:22:40.377Z,29.00
2019-04-27T10:25:00.173Z,31.50
2019-04-27T10:27:27.881Z,33.10
2019-04-27T10:29:56.655Z,30.60
2019-04-27T10:32:26.167Z,30.30
2019-04-27T10:34:54.076Z,31.40
2019-04-27T10:37:21.810Z,26.30
2019-04-27T10:39:49.746Z,26.50
2019-04-27T10:42:17.538Z,27.80
2019-04-27T10:44:46.191Z,25.80
2019-04-27T10:47:15.939Z,27.60
2019-04-27T10:49:43.774Z,28.40
2019-04-27T10:52:11.714Z,29.80
2019-04-27T10:54:39.945Z,29.10
2019-04-27T10:57:09.231Z,30.30
2019-04-27T10:59:37.393Z,28.20
2019-04-27T11:02:05.713Z,27.70
2019-04-27T11:04:57.301Z,28.40
2019-04-27T11:07:36.839Z,32.20
2019-04-27T11:10:10.459Z,41.50
2019-04-27T11:12:40.623Z,47.60
2019-04-27T11:15:09.496Z,49.20
2019-04-27T11:17:40.414Z,50.80
2019-04-27T11:20:09.892Z,51.90
2019-04-27T11:22:39.996Z,46.40
2019-04-27T11:25:09.853Z,43.60
2019-04-27T11:27:40.696Z,47.80
2019-04-27T11:30:11.446Z,51.70
2019-04-27T11:32:39.256Z,53.60
2019-04-27T11:35:31.536Z,63.20
2019-04-27T11:38:00.035Z,63.50
2019-04-27T11:40:28.915Z,61.10
2019-04-27T11:42:57.319Z,62.00
2019-04-27T11:45:28.891Z,60.10
2019-04-27T11:47:59.631Z,57.30
2019-04-27T11:50:29.517Z,52.70
2019-04-27T11:52:59.368Z,54.50
2019-04-27T11:55:27.436Z,53.40
2019-04-27T11:57:56.118Z,51.00
2019-04-27T12:00:27.933Z,46.00
2019-04-27T12:02:56.714Z,45.10
2019-04-27T12:05:26.104Z,40.70
2019-04-27T12:07:55.906Z,39.70
2019-04-27T12:10:23.919Z,47.10
2019-04-27T12:12:53.407Z,47.00
2019-04-27T12:15:21.270Z,54.50
2019-04-27T12:17:49.232Z,56.70
2019-04-27T12:20:17.969Z,56.10
2019-04-27T12:22:46.306Z,58.40
2019-04-27T12:25:15.666Z,62.30
2019-04-27T12:27:56.635Z,63.00
2019-04-27T12:30:37.765Z,64.80
2019-04-27T12:33:08.709Z,65.40
2019-04-27T12:35:37.138Z,68.30
2019-04-27T12:38:05.850Z,65.80
2019-04-27T12:40:36.543Z,61.40
2019-04-27T12:43:05.817Z,55.30
2019-04-27T12:45:40.001Z,52.90
2019-04-27T12:48:13.112Z,53.00
2019-04-27T12:50:46.166Z,50.60
2019-04-27T12:53:24.497Z,52.30
2019-04-27T12:56:11.128Z,47.90
2019-04-27T12:58:49.846Z,43.30
2019-04-27T13:01:19.519Z,43.10
2019-04-27T13:03:47.456Z,38.10
2019-04-27T13:06:18.827Z,36.90
2019-04-27T13:08:49.576Z,37.40
2019-04-27T13:11:17.821Z,37.40
2019-04-27T13:13:47.473Z,38.00
2019-04-27T13:16:16.630Z,34.60
2019-04-27T13:18:47.115Z,34.80
2019-04-27T13:21:15.718Z,35.70
2019-04-27T13:23:46.337Z,36.80
2019-04-27T13:26:14.222Z,35.20
2019-04-27T13:28:46.833Z,35.50
2019-04-27T13:31:17.676Z,35.20
2019-04-27T13:33:46.533Z,34.90
2019-04-27T13:36:14.433Z,35.30
2019-04-27T13:38:42.538Z,33.80
2019-04-27T13:41:11.561Z,33.40
2019-04-27T13:43:40.043Z,33.60
2019-04-27T13:46:28.223Z,35.20
2019-04-27T13:49:17.566Z,34.20
2019-04-27T13:52:08.226Z,34.80
2019-04-27T13:54:37.998Z,31.90
2019-04-27T13:57:07.594Z,31.70
2019-04-27T13:59:35.623Z,29.40
2019-04-27T14:02:05.760Z,29.50
2019-04-27T14:04:38.414Z,31.30
2019-04-27T14:07:09.052Z,31.00
2019-04-27T14:09:39.676Z,31.90
2019-04-27T14:12:21.200Z,30.70
2019-04-27T14:14:51.085Z,30.00
2019-04-27T14:17:26.398Z,31.10
2019-04-27T14:19:55.119Z,31.20
2019-04-27T14:22:23.486Z,30.60
2019-04-27T14:24:56.295Z,30.60
2019-04-27T14:27:27.785Z,30.70
2019-04-27T14:29:59.393Z,30.90
2019-04-27T14:32:28.907Z,29.40
2019-04-27T14:34:59.077Z,28.80
2019-04-27T14:37:28.562Z,28.20
2019-04-27T14:39:59.759Z,29.50
2019-04-27T14:42:30.596Z,28.30
2019-04-27T14:45:01.163Z,28.00
2019-04-27T14:47:32.928Z,27.60
2019-04-27T14:50:01.128Z,29.80
2019-04-27T14:52:33.419Z,29.20
2019-04-27T14:55:06.389Z,29.80
2019-04-27T14:57:34.657Z,28.40
2019-04-27T15:00:04.653Z,28.90
2019-04-27T15:02:32.908Z,29.50
2019-04-27T15:05:01.105Z,31.30
2019-04-27T15:07:34.140Z,39.00
2019-04-27T15:10:04.745Z,46.50
2019-04-27T15:12:35.224Z,50.40
2019-04-27T15:15:05.685Z,56.20
2019-04-27T15:17:40.625Z,56.10
2019-04-27T15:20:13.908Z,59.60
2019-04-27T15:22:42.824Z,58.60
2019-04-27T15:25:15.760Z,57.00
2019-04-27T15:27:51.597Z,56.50
2019-04-27T15:30:30.910Z,55.10
2019-04-27T15:33:35.824Z,55.90
2019-04-27T15:36:14.561Z,56.40
2019-04-27T15:38:47.724Z,46.20
2019-04-27T15:41:28.908Z,46.00
2019-04-27T15:44:05.619Z,44.40
2019-04-27T15:46:33.572Z,45.30
2019-04-27T15:48:58.992Z,44.60
2019-04-27T15:51:28.326Z,39.20
2019-04-27T15:53:56.162Z,35.70
2019-04-27T15:56:24.368Z,35.80
2019-04-27T15:58:55.730Z,38.90
2019-04-27T16:01:29.710Z,33.40
2019-04-27T16:03:58.323Z,35.30
2019-04-27T16:06:28.142Z,35.20
2019-04-27T16:08:56.015Z,36.00
2019-04-27T16:11:24.019Z,36.40
2019-04-27T16:13:51.730Z,37.50
2019-04-27T16:16:29.172Z,36.20
2019-04-27T16:18:57.687Z,36.30
2019-04-27T16:21:25.629Z,39.50
2019-04-27T16:23:53.354Z,43.80
2019-04-27T16:26:21.067Z,49.10
2019-04-27T16:28:53.006Z,51.70
2019-04-27T16:31:20.423Z,50.30
2019-04-27T16:33:49.668Z,52.20
2019-04-27T16:36:19.763Z,50.70
2019-04-27T16:38:59.045Z,51.20
2019-04-27T16:41:28.101Z,49.40
2019-04-27T16:43:58.102Z,49.30
2019-04-27T16:46:28.378Z,49.00
2019-04-27T16:48:55.850Z,48.20
2019-04-27T16:51:23.705Z,47.10
2019-04-27T16:53:51.418Z,44.60
2019-04-27T16:56:20.880Z,45.00
2019-04-27T16:58:56.284Z,43.60
2019-04-27T17:01:30.010Z,38.50
2019-04-27T17:03:56.396Z,37.60
2019-04-27T17:06:25.444Z,38.30
2019-04-27T17:08:57.449Z,37.30
2019-04-27T17:11:24.017Z,38.10
2019-04-27T17:14:00.684Z,38.80
2019-04-27T17:16:46.526Z,39.40
2019-04-27T17:19:19.746Z,40.90
2019-04-27T17:21:48.504Z,41.50
2019-04-27T17:24:43.916Z,39.30
2019-04-27T17:27:11.232Z,39.40
2019-04-27T17:29:39.369Z,39.70
2019-04-27T17:32:09.356Z,40.00
2019-04-27T17:34:37.318Z,40.70
2019-04-27T17:37:05.237Z,40.50
2019-04-27T17:39:32.977Z,40.50
2019-04-27T17:42:00.880Z,39.40
2019-04-27T17:44:29.737Z,39.30
2019-04-27T17:46:57.552Z,38.30
2019-04-27T17:49:28.082Z,38.40
2019-04-27T17:51:56.031Z,38.10
2019-04-27T17:54:23.886Z,38.30
2019-04-27T17:56:52.486Z,38.80
2019-04-27T17:59:20.959Z,38.10
2019-04-27T18:01:49.732Z,37.70
2019-04-27T18:04:18.564Z,39.60
2019-04-27T18:06:48.224Z,40.80
2019-04-27T18:09:18.886Z,39.60
2019-04-27T18:11:49.991Z,40.40
2019-04-27T18:14:19.289Z,43.50
2019-04-27T18:16:48.405Z,46.30
2019-04-27T18:19:24.741Z,53.60
2019-04-27T18:22:01.671Z,55.80
2019-04-27T18:24:37.890Z,56.90
2019-04-27T18:27:15.355Z,58.40
2019-04-27T18:29:43.882Z,57.60
2019-04-27T18:32:13.482Z,57.90
2019-04-27T18:34:45.182Z,58.70
2019-04-27T18:37:14.460Z,57.70
2019-04-27T18:39:45.298Z,56.90
2019-04-27T18:42:10.981Z,57.90
2019-04-27T18:44:41.497Z,56.90
2019-04-27T18:47:09.213Z,57.10
2019-04-27T18:49:55.156Z,55.70
2019-04-27T18:52:50.144Z,54.40
2019-04-27T18:55:20.850Z,54.90
2019-04-27T18:57:51.133Z,54.70
2019-04-27T19:00:21.041Z,54.60
2019-04-27T19:02:50.325Z,53.30
2019-04-27T19:05:18.925Z,53.10
2019-04-27T19:07:48.558Z,52.70
2019-04-27T19:10:18.593Z,51.30
2019-04-27T19:12:48.292Z,51.80
2019-04-27T19:15:18.352Z,51.00
2019-04-27T19:17:46.380Z,51.60
2019-04-27T19:20:14.247Z,49.50
2019-04-27T19:22:42.361Z,50.40
2019-04-27T19:25:13.227Z,50.40
2019-04-27T19:27:59.106Z,50.90
2019-04-27T19:30:34.682Z,49.60
2019-04-27T19:33:02.559Z,50.60
2019-04-27T19:35:32.291Z,50.60
2019-04-27T19:38:00.446Z,51.70
2019-04-27T19:40:29.056Z,50.40
2019-04-27T19:42:58.893Z,52.40
2019-04-27T19:45:26.933Z,49.70
2019-04-27T19:47:54.797Z,50.20
2019-04-27T19:50:22.506Z,48.40
2019-04-27T19:52:50.477Z,48.20
2019-04-27T19:55:18.926Z,48.60
2019-04-27T19:57:46.850Z,48.70
2019-04-27T20:00:29.666Z,49.80
2019-04-27T20:03:00.050Z,49.70
2019-04-27T20:05:31.398Z,51.40
2019-04-27T20:08:01.399Z,51.00
2019-04-27T20:10:33.898Z,51.00
2019-04-27T20:13:00.822Z,49.30
2019-04-27T20:15:28.757Z,51.20
2019-04-27T20:17:56.477Z,52.20
2019-04-27T20:20:24.563Z,52.00
2019-04-27T20:22:52.272Z,51.90
2019-04-27T20:25:21.293Z,54.20
2019-04-27T20:27:51.384Z,54.90
2019-04-27T20:30:20.931Z,54.70
2019-04-27T20:32:51.055Z,55.00
2019-04-27T20:35:19.156Z,56.10
2019-04-27T20:37:48.749Z,56.30
2019-04-27T20:40:17.069Z,56.80
2019-04-27T20:42:45.001Z,57.10
2019-04-27T20:45:12.725Z,57.30
2019-04-27T20:47:40.489Z,57.50
2019-04-27T20:50:08.433Z,57.70
2019-04-27T20:52:54.036Z,58.30
2019-04-27T20:55:23.806Z,58.60
2019-04-27T20:57:59.696Z,59.20
2019-04-27T21:00:22.952Z,59.40
2019-04-27T21:03:01.981Z,58.00
2019-04-27T21:05:52.468Z,59.50
2019-04-27T21:08:21.160Z,59.60
2019-04-27T21:10:49.205Z,60.20
2019-04-27T21:13:16.917Z,60.90
2019-04-27T21:15:44.742Z,61.00
2019-04-27T21:18:14.821Z,61.80
2019-04-27T21:20:42.736Z,61.00
2019-04-27T21:23:12.044Z,60.70
2019-04-27T21:25:42.080Z,61.20
2019-04-27T21:28:16.580Z,61.30
2019-04-27T21:30:39.653Z,60.80
2019-04-27T21:33:07.625Z,60.70
2019-04-27T21:35:35.379Z,61.10
2019-04-27T21:38:04.781Z,60.30
2019-04-27T21:40:32.711Z,60.00
2019-04-27T21:43:01.171Z,59.50
2019-04-27T21:45:29.269Z,59.90
2019-04-27T21:47:58.088Z,58.40
2019-04-27T21:50:25.865Z,59.40
2019-04-27T21:53:05.723Z,58.60
2019-04-27T21:55:35.360Z,58.80
2019-04-27T21:58:03.311Z,59.20
2019-04-27T22:01:02.812Z,59.20
2019-04-27T22:03:31.625Z,59.90
2019-04-27T22:06:01.667Z,59.30
2019-04-27T22:08:29.584Z,60.50
2019-04-27T22:11:01.572Z,59.40
2019-04-27T22:13:31.163Z,59.70
2019-04-27T22:16:01.154Z,59.00
2019-04-27T22:18:31.446Z,59.30
2019-04-27T22:21:01.204Z,59.80
2019-04-27T22:24:01.035Z,59.80
2019-04-27T22:26:29.072Z,59.60
2019-04-27T22:28:56.775Z,58.90
2019-04-27T22:31:24.527Z,58.70
2019-04-27T22:33:54.573Z,57.30
2019-04-27T22:36:22.090Z,58.40
2019-04-27T22:38:51.603Z,58.10
2019-04-27T22:41:26.943Z,58.20
2019-04-27T22:44:07.720Z,58.80
2019-04-27T22:46:36.283Z,59.00
2019-04-27T22:49:04.199Z,58.60
2019-04-27T22:51:32.083Z,58.50
2019-04-27T22:54:01.334Z,59.20
2019-04-27T22:56:29.307Z,58.30
2019-04-27T22:59:03.984Z,56.80
2019-04-27T23:02:03.140Z,54.70
2019-04-27T23:04:35.900Z,55.90
2019-04-27T23:07:03.704Z,55.40
2019-04-27T23:09:31.446Z,56.70
2019-04-27T23:11:59.601Z,56.00
2019-04-27T23:14:27.475Z,55.90
2019-04-27T23:17:00.805Z,55.40
2019-04-27T23:19:29.434Z,57.30
2019-04-27T23:21:57.134Z,57.80
2019-04-27T23:24:25.054Z,58.50
2019-04-27T23:26:52.923Z,57.50
2019-04-27T23:29:21.391Z,58.30
2019-04-27T23:31:58.795Z,58.10
2019-04-27T23:34:26.488Z,58.10
2019-04-27T23:36:54.327Z,57.80
2019-04-27T23:39:22.058Z,59.10
2019-04-27T23:41:49.984Z,63.30
2019-04-27T23:44:20.496Z,66.70
2019-04-27T23:46:48.382Z,70.90
2019-04-27T23:49:17.518Z,72.90
2019-04-27T23:52:07.491Z,74.10
2019-04-27T23:54:37.881Z,73.80
2019-04-27T23:57:05.752Z,77.40
2019-04-27T23:59:33.462Z,78.50
